createdAt,value
2023-03-27T00:00:56.776Z,89.27
2023-03-27T00:04:00.630Z,89.13
2023-03-27T00:07:03.985Z,89.03
2023-03-27T00:10:08.117Z,88.85
2023-03-27T00:13:11.436Z,88.91
2023-03-27T00:16:14.443Z,89.24
2023-03-27T00:19:18.060Z,88.16
2023-03-27T00:22:21.325Z,88.34
2023-03-27T00:25:26.792Z,88.32
2023-03-27T00:28:30.399Z,87.56
2023-03-27T00:31:33.526Z,88.45
2023-03-27T00:34:36.469Z,88.40
2023-03-27T00:37:39.872Z,88.69
2023-03-27T00:40:44.973Z,88.61
2023-03-27T00:43:48.961Z,88.90
2023-03-27T00:46:55.411Z,88.50
2023-03-27T00:50:01.460Z,88.70
2023-03-27T00:53:16.052Z,88.94
2023-03-27T00:56:19.076Z,89.36
2023-03-27T00:59:26.475Z,88.67
2023-03-27T01:02:29.476Z,89.19
2023-03-27T01:05:33.461Z,89.63
2023-03-27T01:08:37.922Z,90.76
2023-03-27T01:11:41.330Z,92.55
2023-03-27T01:14:44.132Z,93.54
2023-03-27T01:18:10.347Z,94.37
2023-03-27T01:21:25.348Z,95.09
2023-03-27T01:25:07.947Z,95.89
2023-03-27T01:28:38.967Z,95.69
2023-03-27T01:31:48.079Z,95.99
2023-03-27T01:35:01.892Z,95.49
2023-03-27T01:38:20.218Z,95.94
2023-03-27T01:41:43.838Z,95.69
2023-03-27T01:44:53.995Z,95.99
2023-03-27T01:48:26.593Z,96.12
2023-03-27T01:51:36.448Z,96.55
2023-03-27T01:54:46.763Z,97.17
2023-03-27T01:58:00.596Z,97.79
2023-03-27T02:01:06.507Z,97.94
2023-03-27T02:04:17.916Z,98.79
2023-03-27T02:07:37.577Z,98.94
2023-03-27T02:10:48.538Z,98.77
2023-03-27T02:14:00.715Z,98.94
2023-03-27T02:17:10.463Z,99.32
2023-03-27T02:20:16.630Z,99.58
2023-03-27T02:23:19.682Z,100.00
2023-03-27T02:26:22.536Z,100.00
2023-03-27T02:29:40.438Z,100.00
2023-03-27T02:33:27.621Z,99.20
2023-03-27T02:36:55.319Z,99.60
2023-03-27T02:40:40.128Z,100.00
2023-03-27T02:44:01.937Z,100.00
2023-03-27T02:47:38.279Z,100.00
2023-03-27T02:50:47.178Z,99.63
2023-03-27T02:53:58.347Z,100.00
2023-03-27T02:57:09.208Z,100.00
2023-03-27T03:00:43.968Z,100.00
2023-03-27T03:04:00.735Z,100.00
2023-03-27T03:07:16.370Z,100.00
2023-03-27T03:10:21.907Z,100.00
2023-03-27T03:13:24.827Z,100.00
2023-03-27T03:16:30.008Z,100.00
2023-03-27T03:19:32.945Z,100.00
2023-03-27T03:22:36.603Z,100.00
2023-03-27T03:25:39.672Z,100.00
2023-03-27T03:29:00.536Z,100.00
2023-03-27T03:32:08.479Z,100.00
2023-03-27T03:35:13.857Z,100.00
2023-03-27T03:38:25.189Z,100.00
2023-03-27T03:41:28.678Z,100.00
2023-03-27T03:44:37.246Z,100.00
2023-03-27T03:47:54.630Z,99.21
2023-03-27T03:51:00.828Z,98.85
2023-03-27T03:54:06.853Z,98.72
2023-03-27T03:57:09.862Z,97.49
2023-03-27T04:00:13.504Z,97.79
2023-03-27T04:03:32.443Z,97.36
2023-03-27T04:06:38.028Z,97.91
2023-03-27T04:09:40.815Z,97.52
2023-03-27T04:12:52.928Z,97.71
2023-03-27T04:16:03.097Z,97.85
2023-03-27T04:19:08.625Z,96.97
2023-03-27T04:22:17.443Z,97.78
2023-03-27T04:25:22.973Z,97.55
2023-03-27T04:28:34.371Z,98.25
2023-03-27T04:31:52.160Z,98.10
2023-03-27T04:35:13.711Z,98.94
2023-03-27T04:38:34.505Z,98.60
2023-03-27T04:41:38.810Z,98.63
2023-03-27T04:44:46.648Z,99.33
2023-03-27T04:47:50.855Z,98.92
2023-03-27T04:50:56.144Z,98.96
2023-03-27T04:54:08.485Z,98.70
2023-03-27T04:57:19.375Z,99.20
2023-03-27T05:00:25.151Z,98.66
2023-03-27T05:04:03.056Z,98.60
2023-03-27T05:07:20.161Z,98.37
2023-03-27T05:10:24.224Z,98.18
2023-03-27T05:13:29.027Z,99.00
2023-03-27T05:16:31.838Z,98.24
2023-03-27T05:19:37.539Z,98.19
2023-03-27T05:22:41.548Z,98.07
2023-03-27T05:25:59.881Z,98.78
2023-03-27T05:29:12.708Z,98.11
2023-03-27T05:32:19.168Z,98.46
2023-03-27T05:35:30.540Z,97.96
2023-03-27T05:38:34.917Z,97.67
2023-03-27T05:41:52.364Z,97.92
2023-03-27T05:45:00.309Z,97.19
2023-03-27T05:48:04.525Z,97.42
2023-03-27T05:51:13.720Z,96.60
2023-03-27T05:54:18.042Z,96.38
2023-03-27T05:57:27.557Z,96.84
2023-03-27T06:00:34.875Z,96.14
2023-03-27T06:03:39.221Z,96.34
2023-03-27T06:06:55.626Z,95.44
2023-03-27T06:10:01.976Z,95.61
2023-03-27T06:13:13.663Z,95.53
2023-03-27T06:16:43.226Z,96.10
2023-03-27T06:20:13.001Z,95.46
2023-03-27T06:23:18.883Z,94.90
2023-03-27T06:26:22.671Z,95.12
2023-03-27T06:29:29.700Z,94.29
2023-03-27T06:32:32.674Z,93.31
2023-03-27T06:35:35.804Z,93.89
2023-03-27T06:38:48.093Z,94.50
2023-03-27T06:41:51.212Z,93.72
2023-03-27T06:45:06.003Z,93.85
2023-03-27T06:48:29.086Z,94.13
2023-03-27T06:51:33.176Z,93.69
2023-03-27T06:54:37.103Z,93.18
2023-03-27T06:57:51.387Z,93.42
2023-03-27T07:00:55.650Z,92.69
2023-03-27T07:03:58.750Z,92.39
2023-03-27T07:07:51.318Z,91.96
2023-03-27T07:11:34.781Z,91.38
2023-03-27T07:19:29.629Z,89.54
2023-03-27T07:22:44.463Z,88.01
2023-03-27T07:25:59.589Z,86.83
2023-03-27T07:29:22.988Z,87.00
2023-03-27T07:32:37.128Z,85.69
2023-03-27T07:35:43.772Z,85.11
2023-03-27T07:39:09.935Z,84.94
2023-03-27T07:42:13.598Z,84.32
2023-03-27T07:45:38.177Z,84.78
2023-03-27T07:48:41.579Z,85.91
2023-03-27T07:51:51.718Z,84.82
2023-03-27T07:54:57.118Z,85.97
2023-03-27T07:58:07.114Z,85.97
2023-03-27T08:01:13.533Z,87.01
2023-03-27T08:04:19.883Z,86.24
2023-03-27T08:07:38.211Z,86.26
2023-03-27T08:10:42.860Z,86.47
2023-03-27T08:13:47.113Z,87.00
2023-03-27T08:16:50.033Z,85.75
2023-03-27T08:19:54.024Z,86.29
2023-03-27T08:22:57.267Z,86.00
2023-03-27T08:26:06.535Z,86.43
2023-03-27T08:29:16.662Z,87.32
2023-03-27T08:32:23.054Z,87.05
2023-03-27T08:35:28.762Z,87.99
2023-03-27T08:38:33.791Z,87.08
2023-03-27T08:41:51.743Z,87.21
2023-03-27T08:45:09.044Z,86.55
2023-03-27T08:48:27.638Z,86.05
2023-03-27T08:51:48.634Z,84.64
2023-03-27T08:55:18.908Z,83.67
2023-03-27T08:58:46.906Z,83.18
2023-03-27T09:02:29.953Z,83.15
2023-03-27T09:05:40.712Z,82.29
2023-03-27T09:08:50.067Z,82.85
2023-03-27T09:12:05.134Z,83.29
2023-03-27T09:15:16.942Z,83.75
2023-03-27T09:18:34.784Z,83.66
2023-03-27T09:21:41.978Z,81.84
2023-03-27T09:24:52.266Z,81.59
2023-03-27T09:28:53.707Z,80.33
2023-03-27T09:32:01.036Z,80.00
2023-03-27T09:35:06.822Z,79.34
2023-03-27T09:38:27.386Z,79.81
2023-03-27T09:41:43.021Z,77.89
2023-03-27T09:44:58.933Z,77.51
2023-03-27T09:48:12.126Z,76.92
2023-03-27T09:51:40.502Z,76.98
2023-03-27T09:54:55.055Z,76.88
2023-03-27T09:58:15.901Z,76.49
2023-03-27T10:01:34.816Z,77.95
2023-03-27T10:05:02.785Z,77.93
2023-03-27T10:08:27.148Z,75.84
2023-03-27T10:12:20.589Z,76.08
2023-03-27T10:15:25.750Z,76.95
2023-03-27T10:18:35.308Z,76.39
2023-03-27T10:21:47.011Z,76.16
2023-03-27T10:25:03.245Z,77.14
2023-03-27T10:28:36.411Z,74.68
2023-03-27T10:31:54.438Z,76.27
2023-03-27T10:35:26.242Z,76.29
2023-03-27T10:38:56.454Z,76.63
2023-03-27T10:42:10.240Z,75.68
2023-03-27T10:45:22.000Z,75.63
2023-03-27T10:48:54.863Z,74.47
2023-03-27T10:52:21.875Z,75.16
2023-03-27T10:56:09.221Z,73.79
2023-03-27T10:59:28.215Z,73.06
2023-03-27T11:02:58.031Z,74.00
2023-03-27T11:06:07.100Z,72.00
2023-03-27T11:09:29.898Z,72.01
2023-03-27T11:12:43.004Z,72.42
2023-03-27T11:15:56.030Z,73.46
2023-03-27T11:19:38.320Z,72.52
2023-03-27T11:23:30.482Z,72.85
2023-03-27T11:27:19.197Z,72.29
2023-03-27T11:30:39.095Z,72.75
2023-03-27T11:34:29.077Z,72.71
2023-03-27T11:37:44.615Z,73.23
2023-03-27T11:40:52.492Z,72.99
2023-03-27T11:43:55.311Z,73.52
2023-03-27T11:48:01.518Z,73.01
2023-03-27T11:51:37.311Z,73.32
2023-03-27T11:54:54.453Z,73.19
2023-03-27T11:58:16.154Z,74.20
2023-03-27T12:01:38.728Z,73.52
2023-03-27T12:04:50.842Z,71.32
2023-03-27T12:08:36.830Z,70.16
2023-03-27T12:11:52.796Z,70.01
2023-03-27T12:15:36.666Z,68.85
2023-03-27T12:19:08.051Z,68.37
2023-03-27T12:22:43.919Z,66.43
2023-03-27T12:26:35.643Z,65.88
2023-03-27T12:29:59.431Z,66.34
2023-03-27T12:33:27.680Z,65.53
2023-03-27T12:36:40.591Z,67.46
2023-03-27T12:39:54.157Z,66.07
2023-03-27T12:43:09.336Z,67.55
2023-03-27T12:46:25.384Z,66.62
2023-03-27T12:49:46.989Z,65.66
2023-03-27T12:52:57.979Z,64.82
2023-03-27T12:56:17.230Z,65.20
2023-03-27T12:59:29.660Z,66.21
2023-03-27T13:02:57.574Z,66.79
2023-03-27T13:06:04.742Z,66.43
2023-03-27T13:09:19.750Z,67.25
2023-03-27T13:13:18.928Z,68.00
2023-03-27T13:17:07.106Z,69.10
2023-03-27T13:20:22.629Z,70.64
2023-03-27T13:23:54.117Z,72.90
2023-03-27T13:27:40.428Z,74.34
2023-03-27T13:30:51.795Z,75.44
2023-03-27T13:34:37.655Z,74.82
2023-03-27T13:38:04.384Z,75.78
2023-03-27T13:41:46.739Z,74.10
2023-03-27T13:45:20.876Z,75.83
2023-03-27T13:48:42.186Z,75.85
2023-03-27T13:52:32.475Z,74.97
2023-03-27T13:56:10.719Z,74.56
2023-03-27T13:59:54.744Z,73.52
2023-03-27T14:03:24.667Z,73.15
2023-03-27T14:06:41.844Z,74.75
2023-03-27T14:10:08.691Z,72.87
2023-03-27T14:13:57.626Z,71.29
2023-03-27T14:17:12.371Z,71.76
2023-03-27T14:20:30.263Z,73.53
2023-03-27T14:23:56.313Z,73.17
2023-03-27T14:27:18.855Z,72.02
2023-03-27T14:30:33.573Z,71.84
2023-03-27T14:34:08.007Z,71.25
2023-03-27T14:37:29.372Z,71.13
2023-03-27T14:40:47.577Z,69.91
2023-03-27T14:43:54.319Z,69.59
2023-03-27T14:47:04.173Z,69.65
2023-03-27T14:50:15.033Z,69.81
2023-03-27T14:53:26.343Z,68.90
2023-03-27T14:56:47.914Z,69.70
2023-03-27T15:00:16.585Z,69.12
2023-03-27T15:03:26.432Z,68.34
2023-03-27T15:06:36.493Z,69.40
2023-03-27T15:09:42.057Z,69.76
2023-03-27T15:13:15.393Z,69.36
2023-03-27T15:16:26.853Z,70.39
2023-03-27T15:19:45.703Z,70.58
2023-03-27T15:23:00.220Z,70.16
2023-03-27T15:26:24.572Z,70.05
2023-03-27T15:29:39.336Z,69.79
2023-03-27T15:32:50.960Z,68.75
2023-03-27T15:35:56.842Z,69.78
2023-03-27T15:39:01.733Z,69.78
2023-03-27T15:42:06.955Z,69.23
2023-03-27T15:45:11.435Z,68.58
2023-03-27T15:48:30.942Z,68.84
2023-03-27T15:51:34.232Z,68.25
2023-03-27T15:54:54.277Z,67.37
2023-03-27T15:57:57.898Z,68.18
2023-03-27T16:01:03.533Z,68.77
2023-03-27T16:04:45.834Z,68.58
2023-03-27T16:07:49.283Z,67.87
2023-03-27T16:10:54.485Z,67.98
2023-03-27T16:13:59.094Z,68.01
2023-03-27T16:17:37.735Z,67.48
2023-03-27T16:20:40.917Z,67.85
2023-03-27T16:23:44.524Z,68.55
2023-03-27T16:26:47.983Z,67.28
2023-03-27T16:29:54.437Z,66.34
2023-03-27T16:32:57.383Z,65.98
2023-03-27T16:36:00.951Z,65.59
2023-03-27T16:39:04.529Z,66.54
2023-03-27T16:42:12.052Z,66.11
2023-03-27T16:45:15.181Z,64.43
2023-03-27T16:48:18.242Z,63.83
2023-03-27T16:51:24.331Z,62.55
2023-03-27T16:54:27.084Z,63.10
2023-03-27T16:57:29.880Z,62.32
2023-03-27T17:00:36.096Z,62.67
2023-03-27T17:03:39.368Z,63.59
2023-03-27T17:06:42.402Z,64.70
2023-03-27T17:09:45.267Z,63.29
2023-03-27T17:12:48.180Z,63.22
2023-03-27T17:15:51.323Z,62.78
2023-03-27T17:18:55.988Z,61.23
2023-03-27T17:21:59.051Z,59.36
2023-03-27T17:25:02.611Z,57.97
2023-03-27T17:28:07.293Z,57.79
2023-03-27T17:31:10.461Z,57.25
2023-03-27T17:34:13.528Z,56.67
2023-03-27T17:37:16.942Z,57.17
2023-03-27T17:40:24.302Z,56.64
2023-03-27T17:43:27.646Z,57.56
2023-03-27T17:46:30.722Z,58.13
2023-03-27T17:49:34.834Z,57.41
2023-03-27T17:52:37.818Z,57.69
2023-03-27T17:55:41.585Z,57.99
2023-03-27T17:58:49.348Z,57.46
2023-03-27T18:01:52.471Z,57.20
2023-03-27T18:04:55.573Z,57.64
2023-03-27T18:07:58.527Z,58.16
2023-03-27T18:11:02.368Z,56.51
2023-03-27T18:14:05.627Z,57.61
2023-03-27T18:17:09.013Z,57.36
2023-03-27T18:20:13.009Z,57.83
2023-03-27T18:23:18.110Z,57.18
2023-03-27T18:26:21.174Z,57.21
2023-03-27T18:29:25.028Z,58.77
2023-03-27T18:32:27.834Z,58.28
2023-03-27T18:35:34.059Z,57.98
2023-03-27T18:38:40.199Z,57.41
2023-03-27T18:41:43.411Z,57.14
2023-03-27T18:44:48.190Z,57.24
2023-03-27T18:47:51.350Z,57.46
2023-03-27T18:51:00.671Z,57.50
2023-03-27T18:54:04.003Z,58.03
2023-03-27T18:57:07.163Z,56.67
2023-03-27T19:00:15.225Z,57.21
2023-03-27T19:03:20.188Z,57.19
2023-03-27T19:06:25.529Z,57.70
2023-03-27T19:09:40.887Z,57.12
2023-03-27T19:12:45.090Z,57.46
2023-03-27T19:16:14.508Z,58.53
2023-03-27T19:19:25.064Z,58.37
2023-03-27T19:23:00.590Z,58.06
2023-03-27T19:26:10.468Z,58.50
2023-03-27T19:29:17.083Z,58.70
2023-03-27T19:32:21.249Z,58.20
2023-03-27T19:35:25.536Z,58.16
2023-03-27T19:38:28.993Z,58.91
2023-03-27T19:41:31.773Z,58.31
2023-03-27T19:44:34.983Z,57.91
2023-03-27T19:47:38.181Z,58.76
2023-03-27T19:50:41.517Z,59.08
2023-03-27T19:53:50.506Z,58.98
2023-03-27T19:56:56.866Z,59.80
2023-03-27T19:59:59.979Z,60.12
2023-03-27T20:03:03.703Z,59.41
2023-03-27T20:06:13.334Z,58.75
2023-03-27T20:09:17.651Z,59.88
2023-03-27T20:12:22.505Z,58.91
2023-03-27T20:15:26.674Z,58.81
2023-03-27T20:18:32.914Z,59.27
2023-03-27T20:21:40.903Z,59.05
2023-03-27T20:24:48.874Z,59.33
2023-03-27T20:27:51.620Z,59.26
2023-03-27T20:30:55.159Z,59.16
2023-03-27T20:33:58.231Z,59.88
2023-03-27T20:37:03.694Z,58.90
2023-03-27T20:40:11.868Z,59.27
2023-03-27T20:43:15.331Z,59.79
2023-03-27T20:46:18.190Z,59.87
2023-03-27T20:52:30.027Z,60.68
2023-03-27T20:55:39.182Z,59.45
2023-03-27T20:58:48.956Z,59.52
2023-03-27T21:01:51.723Z,60.39
2023-03-27T21:04:54.526Z,60.23
2023-03-27T21:07:57.380Z,59.86
2023-03-27T21:11:03.586Z,60.81
2023-03-27T21:14:06.880Z,61.19
2023-03-27T21:17:09.630Z,60.26
2023-03-27T21:20:12.523Z,60.32
2023-03-27T21:23:16.775Z,61.29
2023-03-27T21:26:20.554Z,61.58
2023-03-27T21:29:25.273Z,61.47
2023-03-27T21:32:28.189Z,62.56
2023-03-27T21:35:30.998Z,62.58
2023-03-27T21:38:44.255Z,63.56
2023-03-27T21:41:47.200Z,62.72
2023-03-27T21:44:53.760Z,61.70
2023-03-27T21:47:58.599Z,61.80
2023-03-27T21:51:06.250Z,62.27
2023-03-27T21:54:09.238Z,61.41
2023-03-27T21:57:12.102Z,61.14
2023-03-27T22:00:15.949Z,60.97
2023-03-27T22:03:18.859Z,61.06
2023-03-27T22:06:21.927Z,60.65
2023-03-27T22:09:24.776Z,60.08
2023-03-27T22:12:27.892Z,59.47
2023-03-27T22:15:31.225Z,59.27
2023-03-27T22:18:34.000Z,59.36
2023-03-27T22:21:37.454Z,58.90
2023-03-27T22:24:40.483Z,58.87
2023-03-27T22:27:43.234Z,58.72
2023-03-27T22:30:46.581Z,58.02
2023-03-27T22:33:50.568Z,59.01
2023-03-27T22:36:53.360Z,58.63
2023-03-27T22:39:56.115Z,58.45
2023-03-27T22:42:58.881Z,57.98
2023-03-27T22:46:22.135Z,59.18
2023-03-27T22:49:24.945Z,59.56
2023-03-27T22:52:28.116Z,60.19
2023-03-27T22:55:31.313Z,59.54
2023-03-27T22:58:34.457Z,59.17
2023-03-27T23:01:37.459Z,59.17
2023-03-27T23:04:40.894Z,60.36
2023-03-27T23:07:43.629Z,59.88
2023-03-27T23:10:58.310Z,60.46
2023-03-27T23:14:01.327Z,60.31
2023-03-27T23:17:04.319Z,60.46
2023-03-27T23:20:07.958Z,61.87
2023-03-27T23:23:10.862Z,60.74
2023-03-27T23:26:14.196Z,60.65
2023-03-27T23:29:17.017Z,61.05
2023-03-27T23:32:19.758Z,61.12
2023-03-27T23:35:22.480Z,61.53
2023-03-27T23:38:25.430Z,60.31
2023-03-27T23:41:29.642Z,60.43
2023-03-27T23:44:32.445Z,60.39
2023-03-27T23:47:35.294Z,60.84
2023-03-27T23:50:38.601Z,61.18
2023-03-27T23:53:42.035Z,61.23
2023-03-27T23:56:44.878Z,61.18
2023-03-27T23:59:47.690Z,60.72
